createdAt,value
2022-10-06T00:00:44.495Z,99.90
2022-10-06T00:03:15.825Z,99.90
2022-10-06T00:05:46.049Z,99.90
2022-10-06T00:08:17.919Z,99.90
2022-10-06T00:10:48.577Z,99.90
2022-10-06T00:13:19.366Z,99.90
2022-10-06T00:15:49.516Z,99.90
2022-10-06T00:18:19.672Z,99.90
2022-10-06T00:20:57.275Z,99.90
2022-10-06T00:23:30.451Z,99.90
2022-10-06T00:26:00.547Z,99.90
2022-10-06T00:28:31.104Z,99.90
2022-10-06T00:31:05.003Z,99.90
2022-10-06T00:33:35.627Z,99.90
2022-10-06T00:36:08.200Z,99.90
2022-10-06T00:38:40.760Z,99.90
2022-10-06T00:41:14.030Z,99.90
2022-10-06T00:43:52.548Z,99.90
2022-10-06T00:46:31.212Z,99.90
2022-10-06T00:49:47.523Z,99.90
2022-10-06T00:52:20.529Z,99.90
2022-10-06T00:54:53.432Z,99.90
2022-10-06T00:57:26.584Z,99.90
2022-10-06T00:59:56.907Z,99.90
2022-10-06T01:02:30.991Z,99.90
2022-10-06T01:05:04.542Z,99.90
2022-10-06T01:07:36.910Z,99.90
2022-10-06T01:10:09.944Z,99.90
2022-10-06T01:12:40.481Z,99.90
2022-10-06T01:15:11.890Z,99.90
2022-10-06T01:17:46.147Z,99.90
2022-10-06T01:20:19.753Z,99.90
2022-10-06T01:22:54.917Z,99.90
2022-10-06T01:25:25.986Z,99.90
2022-10-06T01:27:58.032Z,99.90
2022-10-06T01:30:31.681Z,99.90
2022-10-06T01:33:02.218Z,99.90
2022-10-06T01:35:32.752Z,99.90
2022-10-06T01:38:05.842Z,99.90
2022-10-06T01:40:36.523Z,99.90
2022-10-06T01:43:06.715Z,99.90
2022-10-06T01:45:37.254Z,99.90
2022-10-06T01:48:08.007Z,99.90
2022-10-06T01:50:39.080Z,99.90
2022-10-06T01:53:10.717Z,99.90
2022-10-06T01:55:40.742Z,99.90
2022-10-06T01:58:11.139Z,99.90
2022-10-06T02:00:42.084Z,99.90
2022-10-06T02:03:12.748Z,99.90
2022-10-06T02:05:43.489Z,99.90
2022-10-06T02:08:15.072Z,99.90
2022-10-06T02:10:45.145Z,99.90
2022-10-06T02:13:15.166Z,99.90
2022-10-06T02:15:45.368Z,99.90
2022-10-06T02:18:15.367Z,99.90
2022-10-06T02:20:45.417Z,99.90
2022-10-06T02:23:17.028Z,99.90
2022-10-06T02:25:47.190Z,99.90
2022-10-06T02:28:17.814Z,99.90
2022-10-06T02:30:47.885Z,99.90
2022-10-06T02:33:17.990Z,99.90
2022-10-06T02:35:48.165Z,99.90
2022-10-06T02:38:19.669Z,99.90
2022-10-06T02:40:49.649Z,99.90
2022-10-06T02:43:19.731Z,99.90
2022-10-06T02:45:56.607Z,99.90
2022-10-06T02:48:27.802Z,99.90
2022-10-06T02:50:59.203Z,99.90
2022-10-06T02:53:31.605Z,99.90
2022-10-06T02:56:02.353Z,99.90
2022-10-06T02:58:32.958Z,99.90
2022-10-06T03:01:06.743Z,99.90
2022-10-06T03:03:38.106Z,99.90
2022-10-06T03:06:22.314Z,99.90
2022-10-06T03:08:55.768Z,99.90
2022-10-06T03:11:27.901Z,99.90
2022-10-06T03:13:58.309Z,99.90
2022-10-06T03:16:30.669Z,99.90
2022-10-06T03:19:00.976Z,99.90
2022-10-06T03:21:32.803Z,99.90
2022-10-06T03:24:04.879Z,99.90
2022-10-06T03:26:36.809Z,99.90
2022-10-06T03:29:11.349Z,99.90
2022-10-06T03:31:43.213Z,99.90
2022-10-06T03:34:14.100Z,99.90
2022-10-06T03:36:44.953Z,99.90
2022-10-06T03:39:16.544Z,99.90
2022-10-06T03:41:46.620Z,99.90
2022-10-06T03:44:16.775Z,99.90
2022-10-06T03:46:46.974Z,99.90
2022-10-06T03:49:17.083Z,99.90
2022-10-06T03:51:47.160Z,99.90
2022-10-06T03:54:18.740Z,99.90
2022-10-06T03:56:48.803Z,99.90
2022-10-06T03:59:20.094Z,99.90
2022-10-06T04:01:51.022Z,99.90
2022-10-06T04:04:21.000Z,99.90
2022-10-06T04:06:50.992Z,99.90
2022-10-06T04:09:22.527Z,99.90
2022-10-06T04:11:53.143Z,99.90
2022-10-06T04:14:23.139Z,99.90
2022-10-06T04:16:53.946Z,99.90
2022-10-06T04:19:23.937Z,99.90
2022-10-06T04:21:54.511Z,99.90
2022-10-06T04:24:26.059Z,99.90
2022-10-06T04:27:16.119Z,99.90
2022-10-06T04:29:46.169Z,99.90
2022-10-06T04:32:16.530Z,99.90
2022-10-06T04:34:46.536Z,99.90
2022-10-06T04:37:16.855Z,99.90
2022-10-06T04:39:48.662Z,99.90
2022-10-06T04:42:37.557Z,99.90
2022-10-06T04:45:08.564Z,99.90
2022-10-06T04:47:38.662Z,99.90
2022-10-06T04:50:09.921Z,99.90
2022-10-06T04:52:40.179Z,99.90
2022-10-06T04:55:12.662Z,99.90
2022-10-06T04:57:42.722Z,99.90
2022-10-06T05:00:26.108Z,99.90
2022-10-06T05:02:57.382Z,99.90
2022-10-06T05:05:27.477Z,99.90
2022-10-06T05:07:57.482Z,99.90
2022-10-06T05:10:29.146Z,99.90
2022-10-06T05:12:59.306Z,99.90
2022-10-06T05:15:29.961Z,99.90
2022-10-06T05:18:00.034Z,99.90
2022-10-06T05:20:30.223Z,99.90
2022-10-06T05:23:00.467Z,99.90
2022-10-06T05:25:32.111Z,99.90
2022-10-06T05:28:02.187Z,99.90
2022-10-06T05:30:32.200Z,99.90
2022-10-06T05:33:02.247Z,99.90
2022-10-06T05:35:32.200Z,99.90
2022-10-06T05:38:02.192Z,99.90
2022-10-06T05:40:34.445Z,99.90
2022-10-06T05:43:04.487Z,99.90
2022-10-06T05:45:34.498Z,99.90
2022-10-06T05:48:04.547Z,99.90
2022-10-06T05:50:34.561Z,99.90
2022-10-06T05:53:04.572Z,99.90
2022-10-06T05:55:36.208Z,99.90
2022-10-06T05:58:06.296Z,99.90
2022-10-06T06:00:36.454Z,99.90
2022-10-06T06:03:10.239Z,99.90
2022-10-06T06:05:44.348Z,99.90
2022-10-06T06:08:14.518Z,99.90
2022-10-06T06:10:46.099Z,99.90
2022-10-06T06:13:21.593Z,99.90
2022-10-06T06:16:02.838Z,99.90
2022-10-06T06:18:33.529Z,99.90
2022-10-06T06:21:04.986Z,99.90
2022-10-06T06:23:36.761Z,99.90
2022-10-06T06:26:09.707Z,99.90
2022-10-06T06:28:40.850Z,99.90
2022-10-06T06:31:16.273Z,99.90
2022-10-06T06:33:51.221Z,99.90
2022-10-06T06:36:23.693Z,99.90
2022-10-06T06:38:55.872Z,99.90
2022-10-06T06:41:28.729Z,99.90
2022-10-06T06:44:00.910Z,99.90
2022-10-06T06:49:10.359Z,99.90
2022-10-06T06:51:41.575Z,99.90
2022-10-06T06:54:13.626Z,99.90
2022-10-06T06:56:46.293Z,99.90
2022-10-06T06:59:16.709Z,99.90
2022-10-06T07:01:48.650Z,99.90
2022-10-06T07:04:20.214Z,99.90
2022-10-06T07:06:57.609Z,99.90
2022-10-06T07:09:28.216Z,99.90
2022-10-06T07:11:59.777Z,99.90
2022-10-06T07:14:29.872Z,99.90
2022-10-06T07:17:16.912Z,99.90
2022-10-06T07:20:03.883Z,99.90
2022-10-06T07:22:50.819Z,99.90
2022-10-06T07:25:26.322Z,99.90
2022-10-06T07:27:58.184Z,99.90
2022-10-06T07:30:30.660Z,99.90
2022-10-06T07:33:00.815Z,99.90
2022-10-06T07:35:31.563Z,99.90
2022-10-06T07:38:08.562Z,99.90
2022-10-06T07:40:46.333Z,99.90
2022-10-06T07:43:22.565Z,99.90
2022-10-06T07:45:52.938Z,99.90
2022-10-06T07:48:24.476Z,99.90
2022-10-06T07:50:55.436Z,99.90
2022-10-06T07:53:30.942Z,99.90
2022-10-06T07:56:06.921Z,99.90
2022-10-06T07:58:39.359Z,99.90
2022-10-06T08:01:11.253Z,99.90
2022-10-06T08:03:41.965Z,99.90
2022-10-06T08:06:13.061Z,99.90
2022-10-06T08:08:45.036Z,99.90
2022-10-06T08:11:17.911Z,99.90
2022-10-06T08:13:49.761Z,99.90
2022-10-06T08:16:21.824Z,99.90
2022-10-06T08:18:53.981Z,99.90
2022-10-06T08:21:26.473Z,99.90
2022-10-06T08:23:57.571Z,99.90
2022-10-06T08:26:29.340Z,99.90
2022-10-06T08:29:02.815Z,99.90
2022-10-06T08:31:33.375Z,99.90
2022-10-06T08:34:04.401Z,99.90
2022-10-06T08:36:36.592Z,99.90
2022-10-06T08:39:07.848Z,99.90
2022-10-06T08:41:43.864Z,99.90
2022-10-06T08:44:25.438Z,99.90
2022-10-06T08:47:01.335Z,99.90
2022-10-06T08:49:37.343Z,99.90
2022-10-06T08:52:18.128Z,99.90
2022-10-06T08:54:54.804Z,99.90
2022-10-06T08:57:30.933Z,99.90
2022-10-06T09:00:04.534Z,99.90
2022-10-06T09:02:39.659Z,99.90
2022-10-06T09:05:10.841Z,99.90
2022-10-06T09:07:49.041Z,99.90
2022-10-06T09:10:33.017Z,99.90
2022-10-06T09:13:08.999Z,99.90
2022-10-06T09:15:47.521Z,99.90
2022-10-06T09:18:23.654Z,99.90
2022-10-06T09:20:59.173Z,99.90
2022-10-06T09:23:50.849Z,99.90
2022-10-06T09:26:23.094Z,99.90
2022-10-06T09:28:55.778Z,99.90
2022-10-06T09:31:29.120Z,99.90
2022-10-06T09:34:05.117Z,99.90
2022-10-06T09:36:35.695Z,99.90
2022-10-06T09:39:06.996Z,99.90
2022-10-06T09:41:41.183Z,99.90
2022-10-06T09:44:28.105Z,99.90
2022-10-06T09:46:59.861Z,99.90
2022-10-06T09:49:32.062Z,99.90
2022-10-06T09:52:11.536Z,99.90
2022-10-06T09:54:42.617Z,99.90
2022-10-06T09:57:17.977Z,99.90
2022-10-06T09:59:49.353Z,99.90
2022-10-06T10:02:37.593Z,99.90
2022-10-06T10:05:09.743Z,99.90
2022-10-06T10:07:40.167Z,99.90
2022-10-06T10:10:23.432Z,99.90
2022-10-06T10:12:54.607Z,99.90
2022-10-06T10:15:31.897Z,99.90
2022-10-06T10:18:05.833Z,99.90
2022-10-06T10:20:39.292Z,99.90
2022-10-06T10:23:28.699Z,99.90
2022-10-06T10:26:23.823Z,99.90
2022-10-06T10:29:33.025Z,99.90
2022-10-06T10:32:12.786Z,99.90
2022-10-06T10:35:03.284Z,99.90
2022-10-06T10:37:43.826Z,99.90
2022-10-06T10:40:22.282Z,99.90
2022-10-06T10:42:54.913Z,99.90
2022-10-06T10:45:29.805Z,99.90
2022-10-06T10:48:02.199Z,99.90
2022-10-06T10:50:37.814Z,99.90
2022-10-06T10:53:20.664Z,99.90
2022-10-06T10:55:52.671Z,99.90
2022-10-06T10:58:29.472Z,99.90
2022-10-06T11:01:07.437Z,99.90
2022-10-06T11:03:37.924Z,99.90
2022-10-06T11:06:43.161Z,99.90
2022-10-06T11:09:18.124Z,99.90
2022-10-06T11:11:57.697Z,99.90
2022-10-06T11:14:42.340Z,99.90
2022-10-06T11:17:23.980Z,99.90
2022-10-06T11:20:00.197Z,99.90
2022-10-06T11:22:42.551Z,99.90
2022-10-06T11:25:24.367Z,99.90
2022-10-06T11:28:03.959Z,99.90
2022-10-06T11:30:39.995Z,99.90
2022-10-06T11:33:16.886Z,99.90
2022-10-06T11:35:49.878Z,99.90
2022-10-06T11:38:27.408Z,99.90
2022-10-06T11:41:13.086Z,99.90
2022-10-06T11:43:51.328Z,99.90
2022-10-06T11:46:41.274Z,99.90
2022-10-06T11:49:56.598Z,99.90
2022-10-06T11:52:57.837Z,99.90
2022-10-06T11:55:30.916Z,99.90
2022-10-06T11:58:40.673Z,99.90
2022-10-06T12:01:08.135Z,99.90
2022-10-06T12:04:07.206Z,99.90
2022-10-06T12:07:01.619Z,99.90
2022-10-06T12:09:52.623Z,99.90
2022-10-06T12:13:05.451Z,99.90
2022-10-06T12:19:01.149Z,99.90
2022-10-06T12:21:51.890Z,99.90
2022-10-06T12:24:38.849Z,99.90
2022-10-06T12:27:29.224Z,99.90
2022-10-06T12:30:07.221Z,99.90
2022-10-06T12:32:53.718Z,99.90
2022-10-06T12:35:32.462Z,99.90
2022-10-06T12:38:06.862Z,99.90
2022-10-06T12:40:55.939Z,99.90
2022-10-06T12:43:56.681Z,99.90
2022-10-06T12:46:47.161Z,99.90
2022-10-06T12:49:42.719Z,99.90
2022-10-06T12:52:22.545Z,99.90
2022-10-06T12:55:06.584Z,99.90
2022-10-06T12:57:47.901Z,99.90
2022-10-06T13:00:34.860Z,99.90
2022-10-06T13:03:09.702Z,99.90
2022-10-06T13:05:39.906Z,99.90
2022-10-06T13:08:23.097Z,99.90
2022-10-06T13:10:53.788Z,99.90
2022-10-06T13:13:25.876Z,99.90
2022-10-06T13:16:01.154Z,99.90
2022-10-06T13:18:33.461Z,99.90
2022-10-06T13:21:04.097Z,99.90
2022-10-06T13:23:35.529Z,99.90
2022-10-06T13:26:07.349Z,99.90
2022-10-06T13:28:49.574Z,99.90
2022-10-06T13:31:25.511Z,99.90
2022-10-06T13:34:00.607Z,99.90
2022-10-06T13:36:32.535Z,99.90
2022-10-06T13:39:03.326Z,99.90
2022-10-06T13:41:35.556Z,99.90
2022-10-06T13:44:21.503Z,99.90
2022-10-06T13:46:54.700Z,99.90
2022-10-06T13:49:30.886Z,99.90
2022-10-06T13:52:04.422Z,99.90
2022-10-06T13:54:42.100Z,99.90
2022-10-06T13:57:36.846Z,99.90
2022-10-06T14:00:17.692Z,99.90
2022-10-06T14:02:49.103Z,99.90
2022-10-06T14:05:41.382Z,99.90
2022-10-06T14:08:24.695Z,99.90
2022-10-06T14:10:57.451Z,99.90
2022-10-06T14:13:30.321Z,99.90
2022-10-06T14:16:02.598Z,99.90
2022-10-06T14:18:37.864Z,99.90
2022-10-06T14:21:22.477Z,99.90
2022-10-06T14:23:53.940Z,99.90
2022-10-06T14:26:27.629Z,99.90
2022-10-06T14:28:58.116Z,99.90
2022-10-06T14:31:29.715Z,99.90
2022-10-06T14:33:59.845Z,99.90
2022-10-06T14:36:33.932Z,99.90
2022-10-06T14:39:07.087Z,99.90
2022-10-06T14:41:37.455Z,99.90
2022-10-06T14:44:10.145Z,99.90
2022-10-06T14:46:41.041Z,99.90
2022-10-06T14:49:14.005Z,99.90
2022-10-06T14:51:46.413Z,99.90
2022-10-06T14:54:16.975Z,99.90
2022-10-06T14:56:47.121Z,99.90
2022-10-06T14:59:18.824Z,99.90
2022-10-06T15:01:50.005Z,99.90
2022-10-06T15:04:21.501Z,99.90
2022-10-06T15:07:10.391Z,99.90
2022-10-06T15:09:40.409Z,99.90
2022-10-06T15:12:10.428Z,99.90
2022-10-06T15:14:40.927Z,99.90
2022-10-06T15:17:10.971Z,99.90
2022-10-06T15:19:41.016Z,99.90
2022-10-06T15:22:12.774Z,99.90
2022-10-06T15:24:43.985Z,99.90
2022-10-06T15:27:31.038Z,99.90
2022-10-06T15:30:01.145Z,99.90
2022-10-06T15:32:31.293Z,99.90
2022-10-06T15:35:01.836Z,99.90
2022-10-06T15:37:33.440Z,99.90
2022-10-06T15:40:06.210Z,99.90
2022-10-06T15:42:36.180Z,99.90
2022-10-06T15:45:07.640Z,99.90
2022-10-06T15:47:37.763Z,99.90
2022-10-06T15:50:08.467Z,99.90
2022-10-06T15:52:40.004Z,99.90
2022-10-06T15:55:12.578Z,99.90
2022-10-06T15:57:42.698Z,99.90
2022-10-06T16:00:14.330Z,99.90
2022-10-06T16:02:44.670Z,99.90
2022-10-06T16:05:46.386Z,99.90
2022-10-06T16:08:17.921Z,99.90
2022-10-06T16:10:52.556Z,99.90
2022-10-06T16:13:22.699Z,99.90
2022-10-06T16:15:56.233Z,99.90
2022-10-06T16:18:29.052Z,99.90
2022-10-06T16:20:59.162Z,99.90
2022-10-06T16:23:31.039Z,99.90
2022-10-06T16:26:04.376Z,99.90
2022-10-06T16:28:34.469Z,99.90
2022-10-06T16:31:05.264Z,99.90
2022-10-06T16:33:35.432Z,99.90
2022-10-06T16:36:06.774Z,99.90
2022-10-06T16:38:38.571Z,99.90
2022-10-06T16:41:08.991Z,99.50
2022-10-06T16:43:40.760Z,98.10
2022-10-06T16:46:12.916Z,97.90
2022-10-06T16:48:45.007Z,99.50
2022-10-06T16:51:16.728Z,98.30
2022-10-06T16:53:49.527Z,99.20
2022-10-06T16:56:21.843Z,99.50
2022-10-06T16:58:54.061Z,99.10
2022-10-06T17:01:25.891Z,99.30
2022-10-06T17:04:00.718Z,99.90
2022-10-06T17:06:31.440Z,99.90
2022-10-06T17:09:03.234Z,99.90
2022-10-06T17:11:33.441Z,99.90
2022-10-06T17:14:03.886Z,99.90
2022-10-06T17:16:37.159Z,99.90
2022-10-06T17:19:07.596Z,99.90
2022-10-06T17:21:46.219Z,99.90
2022-10-06T17:24:21.125Z,99.90
2022-10-06T17:26:51.962Z,99.90
2022-10-06T17:29:23.688Z,99.90
2022-10-06T17:32:00.622Z,99.90
2022-10-06T17:34:32.802Z,99.90
2022-10-06T17:37:04.572Z,99.90
2022-10-06T17:39:36.362Z,99.90
2022-10-06T17:42:06.896Z,99.90
2022-10-06T17:44:36.920Z,99.90
2022-10-06T17:47:07.886Z,99.90
2022-10-06T17:49:39.022Z,99.90
2022-10-06T17:52:09.122Z,99.90
2022-10-06T17:54:42.113Z,99.90
2022-10-06T17:57:12.345Z,99.90
2022-10-06T17:59:42.461Z,99.90
2022-10-06T18:02:14.083Z,99.90
2022-10-06T18:04:44.117Z,99.90
2022-10-06T18:07:14.131Z,99.90
2022-10-06T18:10:06.170Z,99.90
2022-10-06T18:12:36.853Z,99.90
2022-10-06T18:15:07.521Z,99.90
2022-10-06T18:17:37.525Z,99.90
2022-10-06T18:20:08.142Z,99.90
2022-10-06T18:22:38.328Z,99.90
2022-10-06T18:25:17.248Z,99.90
2022-10-06T18:27:49.608Z,99.90
2022-10-06T18:30:19.896Z,99.90
2022-10-06T18:38:32.012Z,99.90
2022-10-06T18:41:05.668Z,99.90
2022-10-06T18:43:36.052Z,99.90
2022-10-06T18:46:24.439Z,99.90
2022-10-06T18:48:57.469Z,99.90
2022-10-06T18:51:32.400Z,99.90
2022-10-06T18:54:04.238Z,99.90
2022-10-06T18:56:37.382Z,99.90
2022-10-06T18:59:11.088Z,99.90
2022-10-06T19:01:44.445Z,99.90
2022-10-06T19:04:16.225Z,99.90
2022-10-06T19:06:49.806Z,99.90
2022-10-06T19:09:21.830Z,99.90
2022-10-06T19:11:56.223Z,99.90
2022-10-06T19:14:28.538Z,99.90
2022-10-06T19:16:59.800Z,99.90
2022-10-06T19:19:31.740Z,99.90
2022-10-06T19:22:03.699Z,99.90
2022-10-06T19:24:37.126Z,99.90
2022-10-06T19:27:12.711Z,99.90
2022-10-06T19:29:46.500Z,99.90
2022-10-06T19:32:19.767Z,99.90
2022-10-06T19:34:50.147Z,99.90
2022-10-06T19:37:20.609Z,99.90
2022-10-06T19:39:51.075Z,99.90
2022-10-06T19:42:40.057Z,99.90
2022-10-06T19:45:12.469Z,99.90
2022-10-06T19:47:42.966Z,99.90
2022-10-06T19:50:13.380Z,99.90
2022-10-06T19:52:44.409Z,99.90
2022-10-06T19:55:14.458Z,99.90
2022-10-06T19:57:46.490Z,99.90
2022-10-06T20:00:17.408Z,99.90
2022-10-06T20:02:47.864Z,99.90
2022-10-06T20:05:22.458Z,99.90
2022-10-06T20:07:53.095Z,99.90
2022-10-06T20:10:23.406Z,99.90
2022-10-06T20:12:55.154Z,99.90
2022-10-06T20:15:25.164Z,99.90
2022-10-06T20:17:55.117Z,99.90
2022-10-06T20:20:25.387Z,99.90
2022-10-06T20:22:55.356Z,99.90
2022-10-06T20:25:27.063Z,99.90
2022-10-06T20:27:58.808Z,99.90
2022-10-06T20:30:29.797Z,99.90
2022-10-06T20:33:01.064Z,99.90
2022-10-06T20:35:31.056Z,99.90
2022-10-06T20:38:01.227Z,99.90
2022-10-06T20:40:47.664Z,99.90
2022-10-06T20:43:19.236Z,99.90
2022-10-06T20:45:49.594Z,99.90
2022-10-06T20:48:19.648Z,99.90
2022-10-06T20:50:50.471Z,99.90
2022-10-06T20:53:21.088Z,99.90
2022-10-06T20:55:54.238Z,99.90
2022-10-06T20:58:25.845Z,99.90
2022-10-06T21:00:56.025Z,99.90
2022-10-06T21:03:26.224Z,99.90
2022-10-06T21:05:56.275Z,99.90
2022-10-06T21:08:26.304Z,99.90
2022-10-06T21:11:00.241Z,99.90
2022-10-06T21:13:33.198Z,99.90
2022-10-06T21:16:03.864Z,99.90
2022-10-06T21:18:34.345Z,99.90
2022-10-06T21:21:08.372Z,99.90
2022-10-06T21:23:40.905Z,99.90
2022-10-06T21:26:13.991Z,99.90
2022-10-06T21:28:46.485Z,99.90
2022-10-06T21:31:18.607Z,99.90
2022-10-06T21:33:51.067Z,99.90
2022-10-06T21:36:22.775Z,99.90
2022-10-06T21:38:54.866Z,99.90
2022-10-06T21:41:35.708Z,99.90
2022-10-06T21:44:08.655Z,99.90
2022-10-06T21:46:40.814Z,99.90
2022-10-06T21:49:13.764Z,99.90
2022-10-06T21:51:46.356Z,99.90
2022-10-06T21:54:16.779Z,99.90
2022-10-06T21:56:47.019Z,99.90
2022-10-06T21:59:18.772Z,99.90
2022-10-06T22:01:50.579Z,99.90
2022-10-06T22:04:20.935Z,99.90
2022-10-06T22:06:51.627Z,99.90
2022-10-06T22:09:22.610Z,99.90
2022-10-06T22:11:53.073Z,99.90
2022-10-06T22:14:24.742Z,99.90
2022-10-06T22:16:54.939Z,99.90
2022-10-06T22:19:25.151Z,99.90
2022-10-06T22:21:56.372Z,99.90
2022-10-06T22:24:26.487Z,99.90
2022-10-06T22:26:56.751Z,99.90
2022-10-06T22:29:28.339Z,99.90
2022-10-06T22:31:59.245Z,99.90
2022-10-06T22:34:30.130Z,99.90
2022-10-06T22:37:01.328Z,99.90
2022-10-06T22:39:33.693Z,99.90
2022-10-06T22:42:03.737Z,99.90
2022-10-06T22:44:35.374Z,99.90
2022-10-06T22:47:05.657Z,99.90
2022-10-06T22:49:35.619Z,99.90
2022-10-06T22:52:05.647Z,99.90
2022-10-06T22:54:35.710Z,99.90
2022-10-06T22:57:07.480Z,99.90
2022-10-06T22:59:41.022Z,99.90
2022-10-06T23:02:11.032Z,99.90
2022-10-06T23:04:42.133Z,99.90
2022-10-06T23:07:12.245Z,99.90
2022-10-06T23:09:42.462Z,99.90
2022-10-06T23:12:12.545Z,99.90
2022-10-06T23:14:44.340Z,99.90
2022-10-06T23:17:14.509Z,99.90
2022-10-06T23:19:44.525Z,99.90
2022-10-06T23:22:14.600Z,99.90
2022-10-06T23:24:44.625Z,99.90
2022-10-06T23:27:15.227Z,99.90
2022-10-06T23:29:47.029Z,99.90
2022-10-06T23:32:17.080Z,99.90
2022-10-06T23:34:47.085Z,99.90
2022-10-06T23:37:17.545Z,99.90
2022-10-06T23:39:47.590Z,99.90
2022-10-06T23:42:17.670Z,99.90
2022-10-06T23:44:49.329Z,99.90
2022-10-06T23:47:19.714Z,99.90
2022-10-06T23:49:49.794Z,99.90
2022-10-06T23:52:19.848Z,99.90
2022-10-06T23:54:50.338Z,99.90
2022-10-06T23:59:41.203Z,99.90
